Latest Coastal Weather Observations for Port Augusta

IDS60701

Issued at 3:51 am CST Friday 31 July 2015 (issued every 10 minutes, with the page automatically refreshed every 10 minutes)

About coastal observations | Map of coastal stations | Coastal observations for SA | Marine services | Other Formats
Station Details ID: 018201 Name: PORT AUGUSTA AERO Lat: -32.51 Lon: 137.72 Height: 13.97 m
Data from the previous 72 hours. | See also: Recent months at Port Augusta
Date/Time
CST
Temp

°C
Wind Pressure Rain
since 9am
mm
Weather Cloud Vis
km
Sea
Height
m
Swell
Dir
 
Speed
knots
Gust
knots
hPa Trend Height
m
Period
s
Dir
31/03:30am 7.2 SSW 4 6 1021.5 - 0.0 - - 10 - - - -
31/03:00am 7.2 SW 4 6 1021.5 - 0.0 - Mostly clear 10 - - - -
31/02:30am 6.1 SSW 4 6 1021.7 - 0.0 - - 10 - - - -
31/02:00am 8.1 E 3 4 1022.0 - 0.0 - - 10 - - - -
31/01:30am 9.9 SE 4 6 1022.1 - 0.0 - - 10 - - - -
31/01:00am 8.5 SE 5 7 1022.3 - 0.0 - - 10 - - - -
31/12:30am 8.8 SE 3 4 1022.7 - 0.0 - - 10 - - - -
31/12:00am 7.8 SSE 4 5 1022.5 - 0.0 - Mostly clear 10 - - - -
 
Date/Time
CST
Temp

°C
Wind Pressure Rain
since 9am
mm
Weather Cloud Vis
km
Sea
Height
m
Swell
Dir
 
Speed
knots
Gust
knots
hPa Trend Height
m
Period
s
Dir
30/11:30pm 8.8 E 5 5 1022.9 - 0.0 - Partly cloudy 10 - - - -
30/11:00pm 10.2 E 5 7 1022.6 - 0.0 - Cloudy 10 - - - -
30/10:30pm 12.3 SE 7 9 1022.8 - 0.0 - Partly cloudy 10 - - - -
30/10:00pm 12.1 SSE 8 10 1022.7 - 0.0 - Partly cloudy 10 - - - -
30/09:30pm 12.5 SSE 10 11 1022.5 - 0.0 - - 10 - - - -
30/09:00pm 11.8 SSE 6 8 1022.1 - 0.0 - - 10 - - - -
30/08:30pm 13.6 SSE 9 13 1022.1 - 0.0 - - 10 - - - -
30/08:26pm 12.6 SSE 10 13 1022.1 - 0.0 - - 10 - - - -
30/08:00pm 7.3 SW 4 5 1021.7 - 0.0 - - 10 - - - -
30/07:30pm 8.1 WNW 2 3 1021.2 - 0.0 - - 10 - - - -
30/07:00pm 9.7 N 4 6 1020.9 - 0.0 - - 10 - - - -
30/06:30pm 11.0 NNE 8 9 1020.6 - 0.0 - - 10 - - - -
30/06:00pm 11.5 N 7 8 1020.4 - 0.0 - - 10 - - - -
30/05:30pm 15.7 N 6 7 1020.3 - 0.0 - - 10 - - - -
30/05:00pm 18.0 N 8 10 1020.3 - 0.0 - Partly cloudy 10 - - - -
30/04:30pm 18.5 NW 10 15 1020.0 - 0.0 - Partly cloudy 10 - - - -
30/04:00pm 18.8 NNW 12 15 1019.7 - 0.0 - Partly cloudy 10 - - - -
30/03:30pm 18.9 N 13 17 1019.6 - 0.0 - Partly cloudy 10 - - - -
30/03:00pm 19.0 N 18 22 1019.4 - 0.0 - - 10 - - - -
30/02:30pm 18.8 N 17 23 1019.6 - 0.0 - Partly cloudy 10 - - - -
30/02:00pm 18.2 N 18 23 1020.2 - 0.0 - Partly cloudy 10 - - - -
30/01:30pm 16.3 N 18 22 1021.0 - 0.0 - Partly cloudy 10 - - - -
30/01:00pm 16.0 N 17 23 1021.6 - 0.0 - Partly cloudy 10 - - - -
30/12:30pm 15.3 N 18 23 1022.2 - 0.0 - Partly cloudy 10 - - - -
30/12:00pm 15.3 N 18 24 1022.4 - 0.0 - Partly cloudy 10 - - - -
30/11:30am 12.9 N 18 22 1023.1 - 0.0 - - 10 - - - -
30/11:00am 11.7 N 19 23 1023.2 - 0.0 - - 10 - - - -
30/10:30am 11.6 N 18 24 1023.2 - 0.0 - - 10 - - - -
30/10:00am 11.5 N 18 24 1023.6 - 0.0 - Partly cloudy 10 - - - -
30/09:37am 11.5 N 16 27 1023.6 - 0.0 - Cloudy 10 - - - -
30/09:30am 11.6 N 15 21 1024.1 - 0.0 - Cloudy 10 - - - -
30/09:00am 10.4 N 15 19 1023.7 - 0.0 - Cloudy 10 - - - -
30/08:30am 9.8 N 12 17 1024.0 - 0.0 - Partly cloudy 10 - - - -
30/08:00am 9.5 N 12 18 1023.9 - 0.0 - Partly cloudy 10 - - - -
30/07:30am 8.9 NNW 11 15 1023.3 - 0.0 - - 10 - - - -
30/07:00am 8.4 NNW 11 16 1022.9 - 0.0 - Partly cloudy 10 - - - -
30/06:30am 7.7 NW 8 11 1023.5 - 0.0 - Partly cloudy 10 - - - -
30/06:00am 7.4 NW 8 11 1023.3 - 0.0 - Mostly cloudy 10 - - - -
30/05:30am 7.2 WNW 9 11 1023.3 - 0.0 - Partly cloudy 10 - - - -
30/05:00am 7.1 NW 9 12 1023.3 - 0.0 - Partly cloudy 10 - - - -
30/04:30am 6.6 NNW 11 14 1023.1 - 0.0 - Partly cloudy 10 - - - -
30/04:00am 5.5 NW 10 12 1023.3 - 0.0 - Partly cloudy 10 - - - -
30/03:30am 6.0 NNW 10 13 1023.8 - 0.0 - - 10 - - - -
30/03:00am 6.9 NW 11 13 1024.1 - 0.0 - Partly cloudy 10 - - - -
30/02:30am 7.0 NW 10 12 1024.5 - 0.0 - Partly cloudy 10 - - - -
30/02:00am 7.0 NNW 11 13 1024.7 - 0.0 - - 10 - - - -
30/01:30am 7.6 NNW 12 15 1024.8 - 0.0 - - 10 - - - -
30/01:00am 7.3 NNW 10 13 1024.9 - 0.0 - - 10 - - - -
30/12:30am 6.8 NNW 9 11 1025.0 - 0.0 - - 10 - - - -
30/12:00am 6.7 N 11 13 1024.9 - 0.0 - - 10 - - - -
 
Date/Time
CST
Temp

°C
Wind Pressure Rain
since 9am
mm
Weather Cloud Vis
km
Sea
Height
m
Swell
Dir
 
Speed
knots
Gust
knots
hPa Trend Height
m
Period
s
Dir
29/11:30pm 6.4 N 9 11 1025.3 - 0.0 - - 10 - - - -
29/11:00pm 5.8 N 8 10 1025.6 - 0.0 - - 10 - - - -
29/10:30pm 5.9 NNW 5 6 1025.9 - 0.0 - - 10 - - - -
29/10:00pm 6.3 NNW 4 6 1026.0 - 0.0 - - 10 - - - -
29/09:30pm 6.3 N 6 7 1026.3 - 0.0 - - 10 - - - -
29/09:00pm 6.0 N 7 9 1026.4 - 0.0 - - 10 - - - -
29/08:30pm 6.6 N 7 9 1026.7 - 0.0 - - 10 - - - -
29/08:00pm 6.9 N 9 11 1026.6 - 0.0 - - 10 - - - -
29/07:30pm 6.6 N 7 8 1026.9 - 0.0 - - 10 - - - -
29/07:00pm 7.5 N 7 8 1026.8 - 0.0 - - 10 - - - -
29/06:30pm 8.8 N 8 9 1026.4 - 0.0 - - 10 - - - -
29/06:00pm 11.2 N 9 10 1026.1 - 0.0 - - 10 - - - -
29/05:30pm 13.8 N 11 14 1026.3 - 0.0 - - 10 - - - -
29/05:00pm 14.6 N 15 19 1026.1 - 0.0 - - 10 - - - -
29/04:30pm 14.6 N 16 19 1026.5 - 0.0 - - 10 - - - -
29/04:00pm 15.1 N 14 19 1026.7 - 0.0 - - 10 - - - -
29/03:30pm 14.3 N 15 19 1027.0 - 0.0 - - 10 - - - -
29/03:00pm 15.3 N 16 20 1027.0 - 0.0 - - 10 - - - -
29/02:30pm 14.1 N 17 23 1027.5 - 0.0 - - 10 - - - -
29/02:00pm 14.5 N 18 22 1027.9 - 0.0 - - 10 - - - -
29/01:30pm 14.0 N 15 19 1028.7 - 0.0 - - 10 - - - -
29/01:00pm 14.0 N 18 25 1029.3 - 0.0 - - 10 - - - -
29/12:30pm 13.1 N 16 21 1030.2 - 0.0 - - 10 - - - -
29/12:00pm 12.8 N 15 19 1030.1 - 0.0 - - 10 - - - -
29/11:30am 12.9 N 12 17 1030.5 - 0.0 - - 10 - - - -
29/11:00am 12.1 N 12 15 1030.6 - 0.0 - - 10 - - - -
29/10:30am 10.5 NW 6 12 1031.0 - 0.0 - - 10 - - - -
29/10:00am 7.9 WNW 3 5 1031.8 - 0.0 - - 10 - - - -
29/09:30am 6.6 NNW 4 6 1032.3 - 0.0 - - 10 - - - -
29/09:00am 5.9 ENE 4 5 1032.4 - 0.0 - - 10 - - - -
29/08:30am 4.8 NE 4 6 1032.5 - 0.0 - - 10 - - - -
29/08:00am 4.1 W 5 6 1033.0 - 0.0 - - 10 - - - -
29/07:30am 2.8 WSW 6 8 1032.6 - 0.0 - - 10 - - - -
29/07:00am 1.8 W 5 6 1032.0 - 0.0 - - 10 - - - -
29/06:30am 3.3 NW 1 4 1031.5 - 0.0 - - 10 - - - -
29/06:00am 2.7 CALM 0 0 1030.9 - 0.0 - - 10 - - - -
29/05:30am 3.1 W 4 5 1031.2 - 0.0 - - 10 - - - -
29/05:00am 2.7 WSW 6 7 1031.4 - 0.0 - - 10 - - - -
29/04:30am 2.3 WSW 6 7 1031.6 - 0.0 - - 10 - - - -
29/04:00am 3.6 W 6 7 1031.5 - 0.0 - - 10 - - - -
29/03:30am 3.7 W 4 6 1031.2 - 0.0 - - 10 - - - -
29/03:00am 3.3 WSW 5 6 1031.4 - 0.0 - - 10 - - - -
29/02:30am 2.8 W 5 6 1031.5 - 0.0 - - 10 - - - -
29/02:00am 2.4 W 4 5 1032.0 - 0.0 - - 10 - - - -
29/01:30am 3.1 SSW 2 6 1032.2 - 0.0 - - 10 - - - -
29/01:00am 3.1 CALM 0 0 1032.2 - 0.0 - - 10 - - - -
29/12:30am 3.2 SSE 3 4 1032.7 - 0.0 - - 10 - - - -
29/12:00am 3.9 SE 4 5 1032.7 - 0.0 - - 10 - - - -
 
Date/Time
CST
Temp

°C
Wind Pressure Rain
since 9am
mm
Weather Cloud Vis
km
Sea
Height
m
Swell
Dir
 
Speed
knots
Gust
knots
hPa Trend Height
m
Period
s
Dir
28/11:30pm 5.4 SE 4 6 1033.4 - 0.0 - - 10 - - - -
28/11:00pm 7.1 SE 6 7 1033.7 - 0.0 - - 10 - - - -
28/10:30pm 5.4 ESE 6 8 1033.9 - 0.0 - - 10 - - - -
28/10:00pm 4.3 SSE 4 5 1034.2 - 0.0 - - 10 - - - -
28/09:30pm 4.4 SW 6 7 1034.6 - 0.0 - - 10 - - - -
28/09:00pm 4.5 S 4 5 1034.2 - 0.0 - - 10 - - - -
28/08:30pm 7.0 ESE 5 6 1033.8 - 0.0 - - 10 - - - -
28/08:00pm 8.8 SE 6 7 1034.0 - 0.0 - - 10 - - - -
28/07:30pm 8.4 ESE 7 8 1034.1 - 0.0 - - 10 - - - -
28/07:00pm 8.3 CALM 0 0 1034.1 - 0.0 - - 10 - - - -
28/06:30pm 10.3 CALM 0 0 1033.8 - 0.0 - - 10 - - - -
28/06:00pm 11.7 CALM 0 0 1034.0 - 0.0 - - 10 - - - -
28/05:30pm 13.3 CALM 0 2 1034.0 - 0.0 - - 10 - - - -
28/05:00pm 14.7 CALM 0 5 1033.7 - 0.0 - - 10 - - - -
28/04:30pm 15.3 NNW 3 5 1033.7 - 0.0 - - 10 - - - -
28/04:00pm 15.4 WNW 5 7 1033.7 - 0.0 - - 10 - - - -
28/03:30pm 15.7 NNW 5 8 1033.8 - 0.0 - - 10 - - - -
28/03:00pm 15.6 NNW 5 7 1034.2 - 0.0 - - 10 - - - -
28/02:30pm 15.4 N 6 9 1034.3 - 0.0 - - 10 - - - -
28/02:00pm 15.5 NW 6 11 1034.8 - 0.0 - - 10 - - - -
28/01:30pm 15.7 NNE 5 10 1035.1 - 0.0 - - 10 - - - -
28/01:00pm 15.0 N 7 12 1035.6 - 0.0 - - 10 - - - -
28/12:30pm 15.1 NNW 8 11 1036.2 - 0.0 - - 10 - - - -
28/12:00pm 14.6 N 7 11 1036.9 - 0.0 - - 10 - - - -
28/11:30am 14.0 N 5 8 1037.6 - 0.0 - - 10 - - - -
28/11:00am 12.6 ENE 4 8 1038.0 - 0.0 - - 10 - - - -
28/10:30am 12.4 NE 3 7 1038.0 - 0.0 - - 10 - - - -
28/10:00am 11.3 E 5 7 1038.0 - 0.0 - - 10 - - - -
28/09:30am 9.5 ESE 5 6 1038.1 - 0.0 - - 10 - - - -
28/09:00am 7.3 SE 4 5 1038.6 - 0.0 - - 10 - - - -
28/08:30am 4.4 CALM 0 2 1038.6 - 0.0 - - 10 - - - -
28/08:00am 0.8 SSW 4 5 1038.7 - 0.0 - - 10 - - - -
28/07:30am -0.8 CALM 0 3 1038.4 - 0.0 - - 10 - - - -
28/07:00am -0.3 WSW 5 5 1038.2 - 0.0 - - 10 - - - -
28/06:30am -0.7 SW 6 7 1037.8 - 0.0 - Partly cloudy 10 - - - -
28/06:00am -0.3 SW 4 5 1037.5 - 0.0 - - 10 - - - -
28/05:30am -0.5 CALM 0 0 1037.2 - 0.0 - - 10 - - - -
28/05:00am -0.9 SW 3 5 1037.0 - 0.0 - - 10 - - - -
28/04:30am 0.3 CALM 0 0 1036.6 - 0.0 - - 10 - - - -
28/04:00am 0.3 SW 4 5 1037.0 - 0.0 - - 10 - - - -

Other Formats:

Comma delimited format used in spreadsheet applications
http://www.bom.gov.au/fwo/IDS60701/IDS60701.95666.axf

JavaScript Object Notation format (JSON) in row-major order
http://www.bom.gov.au/fwo/IDS60701/IDS60701.95666.json